M I D A S
Marine Information and Data Acquisition System
Tripno 866 of the Zeeleeuw from 2005-03-18 07:07:38 to 2005-03-18 15:38:58
Back to CruiseResearch ActivitiesStationsMapUnderway DataData graphs

EquipmentUnitsComment
TimeDGPSUTC
LatitudeDGPSDM.mWGS84
LongitudeDGPSDM.mWGS84
HeadingGyrodeg 
SOGDGPSknotsSpeed over ground
COGDGPSdegCourse over ground
DepthEcho soundermeters200 kHz
Missing or incorrect values are displayed as -999
Navigation data collected by the RV Zeeleeuw from 2005-03-18 07:08:53 to 2005-03-18 15:40:54
                                                                                    Next 1000 lines
Time Latitude Longitude Heading SOG COG Depth
2005-03-18 07:09:03 51°13.596 2°56.096 111.7 0.6 284 8.5
2005-03-18 07:09:08 51°13.596 2°56.093 112.1 1.4 291 8.5
2005-03-18 07:09:13 51°13.597 2°56.089 112.9 1.4 291 8.7
2005-03-18 07:09:19 51°13.599 2°56.085 114 1.7 293 5
2005-03-18 07:09:23 51°13.6 2°56.081 115 2 296 5.3
2005-03-18 07:09:29 51°13.601 2°56.076 116.1 2.3 296 -999
2005-03-18 07:09:34 51°13.603 2°56.071 116.8 2.3 296 -999
2005-03-18 07:09:39 51°13.604 2°56.066 117.6 2.4 297 -999
2005-03-18 07:09:43 51°13.606 2°56.062 118 2.4 297 -999
2005-03-18 07:09:49 51°13.607 2°56.059 118 1.6 298 -999
2005-03-18 07:09:54 51°13.607 2°56.059 118.6 1.6 298 -999
2005-03-18 07:09:59 51°13.606 2°56.06 120.8 0.5 109 -999
2005-03-18 07:10:03 51°13.605 2°56.063 124.1 1.2 122 -999
2005-03-18 07:10:09 51°13.603 2°56.068 127.4 2.3 123 -999
2005-03-18 07:10:13 51°13.601 2°56.072 129.9 2.5 124 -999
2005-03-18 07:10:19 51°13.599 2°56.078 131.5 2.7 125 -999
2005-03-18 07:10:24 51°13.596 2°56.083 132.4 2.9 126 5
2005-03-18 07:10:28 51°13.594 2°56.087 133 3.1 126 4.8
2005-03-18 07:10:33 51°13.591 2°56.093 133.5 3.2 127 9.1
2005-03-18 07:10:38 51°13.588 2°56.099 134.2 3.4 129 4.9
2005-03-18 07:10:43 51°13.585 2°56.105 135.2 3.4 130 9.9
2005-03-18 07:10:48 51°13.582 2°56.11 136.4 3.5 132 10.5
2005-03-18 07:10:53 51°13.578 2°56.116 137.8 3.6 134 10.6
2005-03-18 07:10:58 51°13.574 2°56.122 139.7 3.7 137 10.5
2005-03-18 07:11:03 51°13.57 2°56.127 142.1 3.7 137 10.6
2005-03-18 07:11:08 51°13.566 2°56.132 143.9 3.8 140 10.6
2005-03-18 07:11:13 51°13.562 2°56.138 145.1 3.7 141 10.6
2005-03-18 07:11:18 51°13.557 2°56.143 146 3.7 141 10.6
2005-03-18 07:11:24 51°13.553 2°56.151 144.9 3.7 141 10.6
2005-03-18 07:11:28 51°13.55 2°56.157 139.7 3.7 141 10.6
2005-03-18 07:11:34 51°13.547 2°56.166 132.7 4.2 123 10.6
2005-03-18 07:11:38 51°13.545 2°56.172 123.4 4.1 117 10.6
2005-03-18 07:11:43 51°13.543 2°56.181 117.6 4.1 117 10.6
2005-03-18 07:11:48 51°13.542 2°56.19 109.5 4.1 117 10.6
2005-03-18 07:11:53 51°13.542 2°56.199 102.9 3.9 96 10.6
2005-03-18 07:11:57 51°13.542 2°56.205 96.5 3.8 91 10.6
2005-03-18 07:12:03 51°13.543 2°56.215 91.4 3.6 85 10.6
2005-03-18 07:12:08 51°13.543 2°56.221 86.4 3.5 82 10.3
2005-03-18 07:12:13 51°13.543 2°56.226 83.4 2.4 82 9.9
2005-03-18 07:12:18 51°13.544 2°56.229 80 1.8 80 9.8
2005-03-18 07:12:23 51°13.544 2°56.23 75.8 1 80 10.1
2005-03-18 07:12:28 51°13.544 2°56.231 73.2 1 80 10.2
2005-03-18 07:12:34 51°13.543 2°56.23 71.1 0.3 207 10.1
2005-03-18 07:12:38 51°13.542 2°56.228 69.7 0.7 231 10.2
2005-03-18 07:12:43 51°13.541 2°56.225 69.3 1.2 238 9.9
2005-03-18 07:12:48 51°13.54 2°56.222 69.3 1.2 238 -999
2005-03-18 07:12:54 51°13.539 2°56.219 70.4 1.5 245 -999
2005-03-18 07:12:59 51°13.539 2°56.217 71.7 1.2 245 -999
2005-03-18 07:13:04 51°13.539 2°56.216 72.5 0.5 248 -999
2005-03-18 07:13:09 51°13.539 2°56.217 70.6 0.2 235 -999
2005-03-18 07:13:14 51°13.54 2°56.22 66.3 1.1 52 -999
2005-03-18 07:13:19 51°13.542 2°56.223 61.6 1.9 54 -999
2005-03-18 07:13:24 51°13.544 2°56.227 54.3 2.1 48 -999
2005-03-18 07:13:29 51°13.545 2°56.229 48.1 1.8 44 -999
2005-03-18 07:13:34 51°13.546 2°56.23 45.5 0.9 55 -999
2005-03-18 07:13:39 51°13.546 2°56.23 43.3 0.9 55 -999
2005-03-18 07:13:43 51°13.545 2°56.229 41.5 0.5 198 -999
2005-03-18 07:13:49 51°13.543 2°56.227 40.6 1.3 212 -999
2005-03-18 07:13:54 51°13.541 2°56.225 40.2 1.3 212 -999
2005-03-18 07:13:58 51°13.539 2°56.222 40 2 215 5
2005-03-18 07:14:03 51°13.537 2°56.22 39.9 1.9 215 -999
2005-03-18 07:14:09 51°13.536 2°56.219 40.6 1.1 222 -999
2005-03-18 07:14:14 51°13.536 2°56.219 39.5 0.3 195 -999
2005-03-18 07:14:19 51°13.537 2°56.219 34.8 0.4 7 -999
2005-03-18 07:14:24 51°13.539 2°56.221 30.1 1.4 26 -999
2005-03-18 07:14:29 51°13.542 2°56.222 23.3 2.1 20 -999
2005-03-18 07:14:33 51°13.544 2°56.223 16.6 2.1 17 -999
2005-03-18 07:14:39 51°13.546 2°56.225 13.5 1.5 19 -999
2005-03-18 07:14:43 51°13.546 2°56.225 12.1 0.9 18 -999
2005-03-18 07:14:49 51°13.546 2°56.226 10.9 0.4 92 -999
2005-03-18 07:14:54 51°13.545 2°56.226 10.3 0.4 92 -999
2005-03-18 07:14:59 51°13.542 2°56.226 10.2 1.5 175 -999
2005-03-18 07:15:03 51°13.54 2°56.226 10.5 2 185 -999
2005-03-18 07:15:09 51°13.536 2°56.225 11.6 2.1 184 -999
2005-03-18 07:15:14 51°13.534 2°56.225 12.5 2.1 184 -999
2005-03-18 07:15:19 51°13.532 2°56.224 13 1.6 189 -999
2005-03-18 07:15:24 51°13.531 2°56.224 12.7 1.6 189 -999
2005-03-18 07:15:29 51°13.532 2°56.224 9.6 0.2 347 -999
2005-03-18 07:15:34 51°13.534 2°56.224 4.7 0.9 358 -999
2005-03-18 07:15:38 51°13.536 2°56.223 356.9 0.9 358 -999
2005-03-18 07:15:44 51°13.54 2°56.222 348.6 2 349 -999
2005-03-18 07:15:49 51°13.542 2°56.22 342 2.2 343 -999
2005-03-18 07:15:54 51°13.545 2°56.219 338.7 2.2 343 -999
2005-03-18 07:15:59 51°13.546 2°56.219 336.6 1.2 351 -999
2005-03-18 07:16:04 51°13.547 2°56.219 334.6 1.2 351 -999
2005-03-18 07:16:09 51°13.546 2°56.22 333.7 0.4 91 -999
2005-03-18 07:16:14 51°13.545 2°56.222 333.2 0.6 126 -999
2005-03-18 07:16:19 51°13.543 2°56.224 332.8 1.1 132 -999
2005-03-18 07:16:23 51°13.541 2°56.227 332.4 1.1 132 -999
2005-03-18 07:16:28 51°13.539 2°56.23 332 2.4 142 -999
2005-03-18 07:16:34 51°13.536 2°56.234 332 2.4 146 -999
2005-03-18 07:16:39 51°13.533 2°56.237 332.2 2.4 144 -999
2005-03-18 07:16:44 51°13.531 2°56.239 332.2 1.9 147 -999
2005-03-18 07:16:49 51°13.531 2°56.239 331.9 0.6 120 -999
2005-03-18 07:16:53 51°13.532 2°56.238 328.7 0.2 100 -999
2005-03-18 07:16:59 51°13.534 2°56.236 322.9 1.5 321 -999
2005-03-18 07:17:04 51°13.536 2°56.23 315.1 1.5 321 -999
2005-03-18 07:17:09 51°13.538 2°56.224 306.2 3.3 302 -999
2005-03-18 07:17:14 51°13.541 2°56.217 300.5 3.4 301 -999
2005-03-18 07:17:19 51°13.543 2°56.209 297.4 3.6 299 -999
2005-03-18 07:17:23 51°13.545 2°56.202 295.9 3.9 296 -999
2005-03-18 07:17:29 51°13.548 2°56.191 295.1 4.5 292 -999
2005-03-18 07:17:33 51°13.55 2°56.182 294.3 4.5 292 10.5
2005-03-18 07:17:38 51°13.552 2°56.173 293.7 5.1 290 10.5
2005-03-18 07:17:43 51°13.555 2°56.161 293.5 5.1 290 10.5
2005-03-18 07:17:48 51°13.558 2°56.149 294.6 5.5 292 10.5
2005-03-18 07:17:53 51°13.562 2°56.138 296.8 5.7 295 10.5
2005-03-18 07:17:58 51°13.566 2°56.127 299.7 5.8 298 10.5
2005-03-18 07:18:03 51°13.57 2°56.115 301.9 5.9 298 10.5
2005-03-18 07:18:08 51°13.575 2°56.103 302.8 5.9 298 10.4
2005-03-18 07:18:13 51°13.579 2°56.091 303.9 6.3 302 10.4
2005-03-18 07:18:18 51°13.584 2°56.08 304.5 6.4 301 10.4
2005-03-18 07:18:23 51°13.589 2°56.066 305 6.6 302 10.4
2005-03-18 07:18:27 51°13.593 2°56.056 305.7 6.6 303 10.5
2005-03-18 07:18:33 51°13.599 2°56.041 305.8 6.7 303 10.4
2005-03-18 07:18:38 51°13.604 2°56.028 305.7 6.8 302 10.4
2005-03-18 07:18:43 51°13.609 2°56.015 305.7 6.8 302 10.5
2005-03-18 07:18:47 51°13.613 2°56.004 305.8 6.8 302 10.4
2005-03-18 07:18:53 51°13.62 2°55.989 305.9 7 303 10.5
2005-03-18 07:18:58 51°13.625 2°55.976 306 7.1 303 -999
2005-03-18 07:19:04 51°13.631 2°55.961 306.2 7.1 303 -999
2005-03-18 07:19:07 51°13.635 2°55.951 306 7.2 302 10.3
2005-03-18 07:19:13 51°13.642 2°55.935 305.9 7.4 303 10.3
2005-03-18 07:19:17 51°13.647 2°55.924 306.3 7.6 304 10.3
2005-03-18 07:19:23 51°13.654 2°55.906 307 7.9 304 10.3
2005-03-18 07:19:27 51°13.659 2°55.896 307.4 8 304 10.2
2005-03-18 07:19:33 51°13.667 2°55.876 307.3 8 304 10.2
2005-03-18 07:19:38 51°13.674 2°55.86 307.1 8.5 304 10.3
2005-03-18 07:19:43 51°13.681 2°55.845 308 8.6 305 10.4
2005-03-18 07:19:48 51°13.688 2°55.829 309.7 8.7 306 10.7
2005-03-18 07:19:54 51°13.697 2°55.812 311 8.7 306 11.1
2005-03-18 07:19:59 51°13.704 2°55.796 311.3 9.2 308 -999
2005-03-18 07:20:04 51°13.713 2°55.779 311.8 9.2 308 -999
2005-03-18 07:20:09 51°13.721 2°55.763 312.9 9.6 309 -999
2005-03-18 07:20:14 51°13.73 2°55.747 314.3 9.7 310 -999
2005-03-18 07:20:19 51°13.74 2°55.732 316.9 9.8 314 -999
2005-03-18 07:20:24 51°13.751 2°55.718 320.4 9.9 319 12.1
2005-03-18 07:20:29 51°13.762 2°55.704 322.9 9.9 321 11.1
2005-03-18 07:20:33 51°13.772 2°55.692 324.5 10 322 11.2
2005-03-18 07:20:39 51°13.784 2°55.678 326.2 10.1 324 11.2
2005-03-18 07:20:44 51°13.796 2°55.665 327.7 10.2 325 11.2
2005-03-18 07:20:49 51°13.808 2°55.653 329.5 10.2 327 -999
2005-03-18 07:20:54 51°13.821 2°55.642 331.8 10.3 330 11
2005-03-18 07:20:58 51°13.832 2°55.632 334.9 10.3 330 -999
2005-03-18 07:21:03 51°13.845 2°55.623 337 10.3 333 11.9
2005-03-18 07:21:09 51°13.859 2°55.612 338.2 10.4 334 -999
2005-03-18 07:21:14 51°13.872 2°55.602 338.6 10.4 335 10.8
2005-03-18 07:21:19 51°13.885 2°55.592 338.7 10.4 335 10.9
2005-03-18 07:21:24 51°13.899 2°55.582 338.5 10.5 334 -999
2005-03-18 07:21:28 51°13.909 2°55.574 338 10.5 334 10.8
2005-03-18 07:21:33 51°13.924 2°55.563 338.2 10.6 335 10.8
2005-03-18 07:21:37 51°13.934 2°55.556 339.9 10.6 337 10.8
2005-03-18 07:21:43 51°13.951 2°55.544 340.4 10.6 337 10.9
2005-03-18 07:21:48 51°13.964 2°55.535 340.2 10.6 336 10.9
2005-03-18 07:21:53 51°13.977 2°55.525 340.1 10.6 336 10.9
2005-03-18 07:21:59 51°13.992 2°55.515 340.4 10.6 337 10.9
2005-03-18 07:22:04 51°14.006 2°55.507 341.5 10.6 338 10.9
2005-03-18 07:22:08 51°14.018 2°55.498 342.4 10.6 339 10.8
2005-03-18 07:22:14 51°14.033 2°55.488 341.8 10.6 337 10.8
2005-03-18 07:22:18 51°14.044 2°55.481 341.1 10.6 337 10.9
2005-03-18 07:22:23 51°14.059 2°55.471 341.1 10.6 337 10.8
2005-03-18 07:22:28 51°14.071 2°55.462 340.9 10.7 336 10.9
2005-03-18 07:22:33 51°14.086 2°55.452 340.7 10.7 337 10.9
2005-03-18 07:22:38 51°14.1 2°55.442 340.8 10.7 337 10.9
2005-03-18 07:22:43 51°14.113 2°55.432 340.1 10.7 337 10.9
2005-03-18 07:22:47 51°14.124 2°55.423 338.9 10.8 334 11
2005-03-18 07:22:53 51°14.14 2°55.41 337.9 10.9 332 11.7
2005-03-18 07:22:58 51°14.152 2°55.399 336.5 10.9 331 11.3
2005-03-18 07:23:03 51°14.166 2°55.386 336 10.9 331 11.9
2005-03-18 07:23:07 51°14.177 2°55.377 335.3 10.9 330 12
2005-03-18 07:23:13 51°14.192 2°55.361 333.8 10.9 330 11.9
2005-03-18 07:23:18 51°14.203 2°55.349 332.7 10.9 327 11.8
2005-03-18 07:23:23 51°14.217 2°55.333 330.9 10.9 327 12.3
2005-03-18 07:23:28 51°14.228 2°55.319 328.4 11 323 12.6
2005-03-18 07:23:33 51°14.24 2°55.302 326.4 11 321 11.3
2005-03-18 07:23:38 51°14.25 2°55.287 324.5 11 319 11.3
2005-03-18 07:23:43 51°14.262 2°55.269 323.1 11 319 11.3
2005-03-18 07:23:48 51°14.273 2°55.251 320.5 11 315 12.2
2005-03-18 07:23:53 51°14.282 2°55.235 318.3 11 314 11.7
2005-03-18 07:23:57 51°14.292 2°55.219 317.2 11 314 11.3
2005-03-18 07:24:03 51°14.303 2°55.196 315.8 11 314 11.4
2005-03-18 07:24:07 51°14.31 2°55.183 313.8 11 309 11.4
2005-03-18 07:24:13 51°14.322 2°55.158 312.2 11 309 11.4
2005-03-18 07:24:17 51°14.329 2°55.142 311.2 11 307 11.3
2005-03-18 07:24:22 51°14.337 2°55.125 310.6 11.1 307 11.3
2005-03-18 07:24:28 51°14.349 2°55.098 310.6 11.1 307 11.3
2005-03-18 07:24:33 51°14.359 2°55.078 310 11.3 306 11.3
2005-03-18 07:24:38 51°14.368 2°55.057 309.5 11.3 306 11.4
2005-03-18 07:24:43 51°14.378 2°55.038 310 11.6 308 11.7
2005-03-18 07:24:48 51°14.388 2°55.02 312.4 11.7 311 11.7
2005-03-18 07:24:53 51°14.4 2°54.998 314.1 11.8 311 11.8
2005-03-18 07:24:57 51°14.409 2°54.983 315 11.8 312 11.8
2005-03-18 07:25:03 51°14.423 2°54.96 316 11.8 312 11.8
2005-03-18 07:25:08 51°14.435 2°54.94 316.6 11.8 312 12
2005-03-18 07:25:13 51°14.447 2°54.921 317.3 12.5 316 11.9
2005-03-18 07:25:18 51°14.459 2°54.904 319 12.7 317 11.9
2005-03-18 07:25:22 51°14.47 2°54.889 320.9 12.7 317 11.7
2005-03-18 07:25:29 51°14.49 2°54.862 321.8 13.2 319 11.5
2005-03-18 07:25:33 51°14.502 2°54.846 322.3 13.2 321 11.4
2005-03-18 07:25:37 51°14.514 2°54.831 323.1 13.2 321 11.4
2005-03-18 07:25:43 51°14.531 2°54.809 323.7 13.3 321 11.2
2005-03-18 07:25:48 51°14.544 2°54.791 323.8 13.4 321 11.3
2005-03-18 07:25:53 51°14.56 2°54.771 322.9 13.4 320 11.2
2005-03-18 07:25:58 51°14.573 2°54.754 322.6 13.4 321 11.2
2005-03-18 07:26:02 51°14.584 2°54.739 322.2 13.4 321 11
2005-03-18 07:26:07 51°14.601 2°54.719 321.9 13.4 321 11
2005-03-18 07:26:14 51°14.619 2°54.694 321.5 13.3 321 10.9
2005-03-18 07:26:19 51°14.633 2°54.675 321.3 13.4 321 10.9
2005-03-18 07:26:23 51°14.646 2°54.658 320.8 13.3 320 10.9
2005-03-18 07:26:28 51°14.66 2°54.638 320 13.3 320 10.9
2005-03-18 07:26:33 51°14.672 2°54.621 319.5 13.2 319 10.8
2005-03-18 07:26:38 51°14.686 2°54.598 318.5 13.2 319 10.9
2005-03-18 07:26:43 51°14.699 2°54.578 317.1 13.2 315 10.9
2005-03-18 07:26:47 51°14.708 2°54.563 315.5 13.2 314 11
2005-03-18 07:26:53 51°14.724 2°54.536 314.7 13.2 314 11.1
2005-03-18 07:26:58 51°14.736 2°54.514 313.8 13.1 313 11.1
2005-03-18 07:27:03 51°14.748 2°54.492 312.7 13.1 313 11.1
2005-03-18 07:27:07 51°14.757 2°54.474 311.1 13.1 310 11.1
2005-03-18 07:27:13 51°14.771 2°54.447 310.2 13 309 11.2
2005-03-18 07:27:18 51°14.781 2°54.428 309.6 13 309 11.2
2005-03-18 07:27:23 51°14.793 2°54.403 309.1 13 309 11
2005-03-18 07:27:29 51°14.806 2°54.378 308.6 13 309 11
2005-03-18 07:27:33 51°14.816 2°54.357 308.6 13 309 11.1
2005-03-18 07:27:38 51°14.827 2°54.335 308.5 13 308 11.1
2005-03-18 07:27:43 51°14.838 2°54.312 308.5 13 308 11
2005-03-18 07:27:48 51°14.849 2°54.289 308.6 13 308 10.9
2005-03-18 07:27:53 51°14.86 2°54.267 308.3 13 307 10.8
2005-03-18 07:27:58 51°14.87 2°54.243 308.4 13 307 10.7
2005-03-18 07:28:03 51°14.88 2°54.219 306.8 13 307 10.6
2005-03-18 07:28:08 51°14.889 2°54.197 304.8 13 307 10.5
2005-03-18 07:28:14 51°14.899 2°54.167 303.1 12.9 301 10.4
2005-03-18 07:28:18 51°14.906 2°54.148 301.5 12.9 300 10.4
2005-03-18 07:28:23 51°14.916 2°54.12 300.6 12.9 298 10.4
2005-03-18 07:28:27 51°14.922 2°54.099 299.4 12.9 298 10.4
2005-03-18 07:28:33 51°14.931 2°54.069 298.9 12.9 297 10.6
2005-03-18 07:28:38 51°14.94 2°54.043 298.6 13 296 10.5
2005-03-18 07:28:43 51°14.948 2°54.017 298.3 13 296 10.6
2005-03-18 07:28:48 51°14.956 2°53.991 298.6 13 296 10.6
2005-03-18 07:28:53 51°14.964 2°53.965 299 13 297 10.7
2005-03-18 07:28:58 51°14.972 2°53.94 299.4 13.1 297 10.7
2005-03-18 07:29:03 51°14.981 2°53.914 299.8 13 298 10.8
2005-03-18 07:29:08 51°14.988 2°53.89 299.8 13.1 298 10.8
2005-03-18 07:29:13 51°14.996 2°53.862 298.9 13.1 298 10.9
2005-03-18 07:29:18 51°15.003 2°53.837 297.2 13 294 10.7
2005-03-18 07:29:23 51°15.011 2°53.809 297 13 294 10.8
2005-03-18 07:29:28 51°15.018 2°53.783 296.6 13 294 11
2005-03-18 07:29:33 51°15.025 2°53.756 296.6 13 294 10.9
2005-03-18 07:29:38 51°15.032 2°53.73 296.4 13 294 11
2005-03-18 07:29:43 51°15.04 2°53.704 296.4 13 294 11.1
2005-03-18 07:29:48 51°15.047 2°53.677 296.3 13.1 293 11
2005-03-18 07:29:53 51°15.054 2°53.651 296.1 13.1 293 11
2005-03-18 07:29:58 51°15.061 2°53.627 295.7 13.1 293 11
2005-03-18 07:30:03 51°15.068 2°53.598 295.7 13.1 293 11
2005-03-18 07:30:07 51°15.074 2°53.577 295.7 13.1 294 11
2005-03-18 07:30:14 51°15.084 2°53.542 296 13 294 11
2005-03-18 07:30:18 51°15.09 2°53.52 296.5 13.1 294 11
2005-03-18 07:30:23 51°15.097 2°53.493 296.3 13.1 294 11
2005-03-18 07:30:28 51°15.104 2°53.466 295.8 13.1 294 11.1
2005-03-18 07:30:34 51°15.112 2°53.438 295.8 13.1 294 11.1
2005-03-18 07:30:39 51°15.12 2°53.411 295.9 13.1 294 11.1
2005-03-18 07:30:43 51°15.126 2°53.389 296.2 13.1 294 11.1
2005-03-18 07:30:47 51°15.132 2°53.366 296.1 13.1 293 11.2
2005-03-18 07:30:54 51°15.142 2°53.328 295.9 13.1 293 11.3
2005-03-18 07:30:58 51°15.148 2°53.307 296.1 13.2 294 11.4
2005-03-18 07:31:03 51°15.156 2°53.281 296.5 13.2 294 11.4
2005-03-18 07:31:08 51°15.164 2°53.254 296.9 13.2 295 11.4
2005-03-18 07:31:11 51°15.168 2°53.238 296.8 13.1 294 11.4
2005-03-18 07:31:18 51°15.179 2°53.201 296.3 13.1 295 11.6
2005-03-18 07:31:24 51°15.187 2°53.172 296.5 13.1 295 11.5
2005-03-18 07:31:28 51°15.193 2°53.15 296.2 13.1 295 11.6
2005-03-18 07:31:33 51°15.201 2°53.121 296.5 13.1 295 11.8
2005-03-18 07:31:38 51°15.209 2°53.095 296.5 13.1 295 11.6
2005-03-18 07:31:44 51°15.217 2°53.066 296.2 13.2 294 11.7
2005-03-18 07:31:48 51°15.223 2°53.045 296.2 13.1 294 11.7
2005-03-18 07:31:54 51°15.232 2°53.012 296.1 13.1 294 11.8
2005-03-18 07:31:58 51°15.238 2°52.989 296.6 13.1 295 11.8
2005-03-18 07:32:03 51°15.246 2°52.962 296.8 13.2 294 12
2005-03-18 07:32:09 51°15.254 2°52.933 296.7 13.2 295 12
2005-03-18 07:32:14 51°15.261 2°52.906 296.8 13.1 294 12
2005-03-18 07:32:18 51°15.266 2°52.882 294.9 13.1 290 12
2005-03-18 07:32:23 51°15.272 2°52.854 292.3 13.1 290 12
2005-03-18 07:32:28 51°15.277 2°52.83 290.8 13.1 290 12.1
2005-03-18 07:32:34 51°15.283 2°52.797 289.3 13.1 290 12.2
2005-03-18 07:32:38 51°15.287 2°52.771 288.2 13 286 12.2
2005-03-18 07:32:42 51°15.291 2°52.749 287.6 13 285 12.3
2005-03-18 07:32:48 51°15.296 2°52.718 286.9 13.1 284 12.2
2005-03-18 07:32:53 51°15.301 2°52.688 286.2 13 284 12.3
2005-03-18 07:32:58 51°15.305 2°52.66 286.2 13.1 285 12.4
2005-03-18 07:33:04 51°15.31 2°52.629 286.2 13 285 12.4
2005-03-18 07:33:08 51°15.314 2°52.603 286.3 13 285 12.4
2005-03-18 07:33:13 51°15.319 2°52.576 285.9 13 284 12.5
2005-03-18 07:33:19 51°15.324 2°52.546 286 13 284 12.6
2005-03-18 07:33:24 51°15.328 2°52.518 286 13 285 12.6
2005-03-18 07:33:29 51°15.333 2°52.49 286.1 13 285 12.6
2005-03-18 07:33:33 51°15.336 2°52.465 286 13 284 12.7
2005-03-18 07:33:39 51°15.341 2°52.434 285.9 13 284 12.7
2005-03-18 07:33:43 51°15.345 2°52.409 285.8 13 284 12.7
2005-03-18 07:33:49 51°15.35 2°52.379 285.9 13 284 12.7
2005-03-18 07:33:54 51°15.355 2°52.351 286.1 12.9 285 12.8
2005-03-18 07:33:58 51°15.359 2°52.326 286 12.9 284 12.8
2005-03-18 07:34:04 51°15.363 2°52.296 285.9 12.9 284 12.9
2005-03-18 07:34:08 51°15.367 2°52.274 285.9 12.9 284 12.9
2005-03-18 07:34:13 51°15.372 2°52.243 286.2 12.9 285 13
2005-03-18 07:34:18 51°15.377 2°52.216 286.5 12.9 285 13
2005-03-18 07:34:23 51°15.381 2°52.188 287 12.9 285 13
2005-03-18 07:34:29 51°15.387 2°52.158 287.3 12.9 286 13.1
2005-03-18 07:34:34 51°15.392 2°52.131 287.4 12.9 286 13.1
2005-03-18 07:34:38 51°15.396 2°52.106 287.5 12.9 286 13.1
2005-03-18 07:34:43 51°15.401 2°52.078 287.4 13 285 13.2
2005-03-18 07:34:49 51°15.406 2°52.047 287.3 12.9 286 13.2
2005-03-18 07:34:54 51°15.411 2°52.02 287.3 13 286 13.2
2005-03-18 07:34:58 51°15.416 2°51.995 287.6 13 286 13.3
2005-03-18 07:35:03 51°15.421 2°51.968 287.9 13.1 286 13.3
2005-03-18 07:35:08 51°15.426 2°51.94 288.1 13.1 286 13.4
2005-03-18 07:35:13 51°15.431 2°51.913 288.1 13.1 286 13.3
2005-03-18 07:35:19 51°15.437 2°51.882 288 13 287 13.3
2005-03-18 07:35:24 51°15.442 2°51.855 288 13 287 13.4
2005-03-18 07:35:28 51°15.447 2°51.83 287.8 13 287 13.4
2005-03-18 07:35:33 51°15.452 2°51.803 288 13 287 13.5
2005-03-18 07:35:38 51°15.457 2°51.779 288.3 13 287 13.4
2005-03-18 07:35:42 51°15.462 2°51.754 288.4 12.9 287 13.4
2005-03-18 07:35:47 51°15.467 2°51.726 288.2 12.9 287 13.4
2005-03-18 07:35:54 51°15.473 2°51.691 287.6 13 286 13.5
2005-03-18 07:35:59 51°15.478 2°51.664 287.7 12.9 286 13.5
2005-03-18 07:36:03 51°15.483 2°51.639 287.9 12.9 286 13.5
2005-03-18 07:36:09 51°15.488 2°51.609 288.1 12.9 286 13.6
2005-03-18 07:36:13 51°15.493 2°51.584 288.1 12.9 286 13.6
2005-03-18 07:36:18 51°15.498 2°51.557 288 12.9 286 13.6
2005-03-18 07:36:23 51°15.503 2°51.53 287.8 12.9 286 13.6
2005-03-18 07:36:29 51°15.508 2°51.499 287.5 12.9 286 13.6
2005-03-18 07:36:34 51°15.513 2°51.472 287.4 12.9 286 13.7
2005-03-18 07:36:38 51°15.517 2°51.447 287.5 12.9 286 13.7
2005-03-18 07:36:42 51°15.521 2°51.428 287.7 12.9 286 13.8
2005-03-18 07:36:48 51°15.527 2°51.392 288 12.9 287 13.7
2005-03-18 07:36:52 51°15.531 2°51.37 288.1 12.9 286 13.8
2005-03-18 07:36:59 51°15.538 2°51.335 288 12.8 286 13.8
2005-03-18 07:37:03 51°15.542 2°51.311 287.7 12.9 286 13.8
2005-03-18 07:37:08 51°15.547 2°51.282 287.8 12.9 286 13.8
2005-03-18 07:37:14 51°15.552 2°51.253 287.4 12.9 286 13.9
2005-03-18 07:37:18 51°15.556 2°51.228 286.7 12.9 285 13.9
2005-03-18 07:37:24 51°15.561 2°51.197 286.2 12.9 285 13.9
2005-03-18 07:37:29 51°15.565 2°51.17 285.9 12.9 285 13.9
2005-03-18 07:37:33 51°15.568 2°51.147 285.8 12.9 284 13.9
2005-03-18 07:37:38 51°15.573 2°51.119 285.8 12.9 284 13.9
2005-03-18 07:37:42 51°15.576 2°51.097 285.8 12.9 284 13.9
2005-03-18 07:37:48 51°15.581 2°51.063 285.4 12.9 283 13.9
2005-03-18 07:37:54 51°15.585 2°51.03 284.5 12.9 283 14
2005-03-18 07:37:58 51°15.588 2°51.007 283.8 12.9 283 14
2005-03-18 07:38:04 51°15.593 2°50.973 283.5 12.9 283 14
2005-03-18 07:38:08 51°15.596 2°50.95 283.3 12.9 282 14
2005-03-18 07:38:13 51°15.6 2°50.919 283 12.9 282 14
2005-03-18 07:38:19 51°15.604 2°50.888 282.8 12.9 281 14.1
2005-03-18 07:38:23 51°15.607 2°50.863 282.7 13 282 14.1
2005-03-18 07:38:29 51°15.611 2°50.832 282.8 12.9 281 13.9
2005-03-18 07:38:34 51°15.614 2°50.805 282.9 12.9 281 14.1
2005-03-18 07:38:39 51°15.617 2°50.776 283 12.9 280 14
2005-03-18 07:38:43 51°15.62 2°50.754 282.3 12.9 280 14.1
2005-03-18 07:38:49 51°15.624 2°50.72 282.2 12.9 280 14.1
2005-03-18 07:38:54 51°15.627 2°50.69 282.3 12.9 280 14.1
2005-03-18 07:38:59 51°15.63 2°50.664 282.7 12.9 280 14.1
2005-03-18 07:39:04 51°15.634 2°50.637 282.8 12.9 280 14.1
2005-03-18 07:39:09 51°15.637 2°50.609 282.8 12.9 282 14.1
2005-03-18 07:39:14 51°15.64 2°50.581 282.9 12.8 281 14
2005-03-18 07:39:19 51°15.643 2°50.553 282.6 12.8 281 14
2005-03-18 07:39:23 51°15.647 2°50.528 282.3 12.8 281 14
2005-03-18 07:39:28 51°15.649 2°50.503 282.5 12.8 281 14
2005-03-18 07:39:33 51°15.653 2°50.472 283 12.9 281 14
2005-03-18 07:39:38 51°15.657 2°50.444 283 12.9 281 14
2005-03-18 07:39:44 51°15.661 2°50.413 283.4 12.9 281 14
2005-03-18 07:39:48 51°15.664 2°50.39 283.7 12.9 282 14.1
2005-03-18 07:39:53 51°15.667 2°50.361 283.6 12.9 282 14
2005-03-18 07:39:58 51°15.671 2°50.333 283.3 12.9 281 14.1
2005-03-18 07:40:03 51°15.674 2°50.302 283 13 280 14.1
2005-03-18 07:40:09 51°15.678 2°50.271 282.6 13 280 14.1
2005-03-18 07:40:14 51°15.681 2°50.243 282.4 12.9 281 14
2005-03-18 07:40:18 51°15.685 2°50.218 282.5 12.9 281 14.1
2005-03-18 07:40:23 51°15.688 2°50.19 283 13 281 14.1
2005-03-18 07:40:28 51°15.692 2°50.162 283.4 13 282 14.1
2005-03-18 07:40:33 51°15.695 2°50.134 283.4 13 282 14.1
2005-03-18 07:40:38 51°15.698 2°50.109 283.4 13 282 14.1
2005-03-18 07:40:44 51°15.703 2°50.075 283.2 13 281 14.1
2005-03-18 07:40:48 51°15.705 2°50.052 282.7 13 281 14.1
2005-03-18 07:40:54 51°15.71 2°50.019 283.1 12.9 282 14.1
2005-03-18 07:40:58 51°15.713 2°49.994 283.2 12.9 282 14
2005-03-18 07:41:03 51°15.716 2°49.966 282.9 12.9 280 13.9
2005-03-18 07:41:08 51°15.719 2°49.94 282.4 13 281 13.9
2005-03-18 07:41:14 51°15.723 2°49.907 282.8 13 281 13.9
2005-03-18 07:41:18 51°15.726 2°49.882 283.2 12.9 281 13.8
2005-03-18 07:41:23 51°15.729 2°49.853 283.2 12.9 281 13.5
2005-03-18 07:41:28 51°15.732 2°49.824 281.7 12.8 279 13.4
2005-03-18 07:41:34 51°15.734 2°49.794 280.8 12.8 279 13.4
2005-03-18 07:41:38 51°15.737 2°49.768 279.5 12.9 277 13.2
2005-03-18 07:41:43 51°15.738 2°49.74 278.8 12.8 277 13.2
2005-03-18 07:41:48 51°15.74 2°49.715 278.1 12.8 277 13
2005-03-18 07:41:54 51°15.742 2°49.681 277.8 12.9 276 12.9
2005-03-18 07:41:59 51°15.744 2°49.652 277.8 12.9 276 12.7
2005-03-18 07:42:03 51°15.745 2°49.63 278 12.9 276 12.7
2005-03-18 07:42:08 51°15.747 2°49.598 277.7 12.8 276 12.5
2005-03-18 07:42:14 51°15.749 2°49.568 277.6 12.9 276 12.5
2005-03-18 07:42:19 51°15.751 2°49.539 277.6 12.9 276 12.3
2005-03-18 07:42:23 51°15.753 2°49.514 277.7 12.9 276 12.2
2005-03-18 07:42:29 51°15.755 2°49.482 277.8 12.9 276 12.1
2005-03-18 07:42:34 51°15.757 2°49.454 277.9 12.9 276 12.1
2005-03-18 07:42:38 51°15.759 2°49.428 278 12.9 276 11.9
2005-03-18 07:42:42 51°15.76 2°49.406 277.9 12.9 276 11.9
2005-03-18 07:42:48 51°15.762 2°49.371 277.8 12.9 276 11.8
2005-03-18 07:42:53 51°15.764 2°49.343 277.6 12.9 275 11.7
2005-03-18 07:42:58 51°15.765 2°49.318 277.6 13 275 11.8
2005-03-18 07:43:03 51°15.767 2°49.286 277.3 13 275 11.7
2005-03-18 07:43:09 51°15.769 2°49.254 277.7 13 275 11.7
2005-03-18 07:43:14 51°15.771 2°49.223 278.1 13 275 11.8
2005-03-18 07:43:18 51°15.773 2°49.2 278.1 13 275 11.7
2005-03-18 07:43:23 51°15.774 2°49.172 278 13 275 11.7
2005-03-18 07:43:28 51°15.776 2°49.143 278 13 275 11.7
2005-03-18 07:43:34 51°15.778 2°49.109 277.7 13 275 11.8
2005-03-18 07:43:38 51°15.779 2°49.086 277.7 13 275 11.8
2005-03-18 07:43:43 51°15.781 2°49.058 277.4 13 275 11.8
2005-03-18 07:43:48 51°15.782 2°49.032 277.4 13 275 11.9
2005-03-18 07:43:54 51°15.785 2°48.997 277.5 13 275 12
2005-03-18 07:43:58 51°15.786 2°48.972 277.7 13.1 276 12.1
2005-03-18 07:44:04 51°15.788 2°48.94 278.2 13 276 12
2005-03-18 07:44:09 51°15.79 2°48.911 278.2 13 276 12.1
2005-03-18 07:44:14 51°15.792 2°48.883 278.2 13 275 12.2
2005-03-18 07:44:19 51°15.794 2°48.854 277.9 13 275 12.3
2005-03-18 07:44:24 51°15.795 2°48.826 277.6 13 275 12.2
2005-03-18 07:44:28 51°15.797 2°48.803 278.1 13 275 12.4
2005-03-18 07:44:33 51°15.798 2°48.772 278.3 13 275 12.5
2005-03-18 07:44:39 51°15.8 2°48.74 277.9 13 275 12.5
2005-03-18 07:44:44 51°15.802 2°48.711 277.9 13.1 275 12.6
2005-03-18 07:44:48 51°15.803 2°48.688 277.9 13.1 275 12.7
2005-03-18 07:44:54 51°15.805 2°48.654 278.1 13.1 276 12.8
2005-03-18 07:44:58 51°15.807 2°48.628 278.2 13 275 12.8
2005-03-18 07:45:04 51°15.809 2°48.596 278.2 13 275 12.8
2005-03-18 07:45:08 51°15.81 2°48.57 277.8 13.1 275 13
2005-03-18 07:45:13 51°15.812 2°48.542 277.8 13.1 275 13
2005-03-18 07:45:18 51°15.814 2°48.513 277.9 13.1 275 13.1
2005-03-18 07:45:23 51°15.816 2°48.484 278.2 13.1 276 13.2
2005-03-18 07:45:29 51°15.818 2°48.453 277.9 13.1 276 13.3
2005-03-18 07:45:34 51°15.82 2°48.425 278.1 13.1 276 13.4
2005-03-18 07:45:38 51°15.822 2°48.399 278.7 13 276 13.5
2005-03-18 07:45:44 51°15.824 2°48.367 278.7 13 276 13.8
2005-03-18 07:45:48 51°15.826 2°48.341 278.7 13 276 13.9
2005-03-18 07:45:53 51°15.828 2°48.313 278.7 13 276 13.9
2005-03-18 07:45:59 51°15.83 2°48.281 278.1 13 276 14.1
2005-03-18 07:46:03 51°15.832 2°48.255 278.1 13 276 14.3
2005-03-18 07:46:08 51°15.834 2°48.227 278.7 13 276 14.5
2005-03-18 07:46:14 51°15.836 2°48.196 278.7 12.9 276 14.6
2005-03-18 07:46:19 51°15.837 2°48.167 278.3 12.9 276 14.7
2005-03-18 07:46:23 51°15.839 2°48.142 277.9 12.9 276 14.9
2005-03-18 07:46:28 51°15.841 2°48.113 277.8 13 276 15
2005-03-18 07:46:34 51°15.843 2°48.082 278.2 13 276 15.1
2005-03-18 07:46:39 51°15.845 2°48.053 278.6 13 276 15.3
2005-03-18 07:46:43 51°15.847 2°48.028 278.6 13 276 15.4
2005-03-18 07:46:48 51°15.849 2°47.999 278.2 13 276 15.3
2005-03-18 07:46:53 51°15.851 2°47.971 278.5 13 276 15.5
2005-03-18 07:46:59 51°15.853 2°47.939 278.5 12.9 276 15.5
2005-03-18 07:47:03 51°15.855 2°47.913 278.5 13 276 15.6
2005-03-18 07:47:08 51°15.856 2°47.888 278.4 13 276 15.7
2005-03-18 07:47:13 51°15.858 2°47.856 278.7 13 276 15.8
2005-03-18 07:47:18 51°15.86 2°47.828 278.3 13 276 15.8
2005-03-18 07:47:24 51°15.863 2°47.796 278.1 13 276 16
2005-03-18 07:47:29 51°15.865 2°47.768 278.1 13 276 16.1
2005-03-18 07:47:34 51°15.867 2°47.739 278.3 13 276 16.3
2005-03-18 07:47:39 51°15.869 2°47.711 278.4 12.9 277 16.4
2005-03-18 07:47:44 51°15.871 2°47.682 278.4 12.9 277 16.6
2005-03-18 07:47:49 51°15.873 2°47.654 278.5 12.9 277 16.8
2005-03-18 07:47:54 51°15.875 2°47.627 278.5 12.9 277 16.9
2005-03-18 07:47:59 51°15.876 2°47.598 278.1 12.9 277 16.8
2005-03-18 07:48:03 51°15.878 2°47.573 277.9 12.9 277 16.9
2005-03-18 07:48:08 51°15.88 2°47.544 277.7 12.8 276 17
2005-03-18 07:48:14 51°15.883 2°47.513 278.4 12.8 279 17
2005-03-18 07:48:18 51°15.886 2°47.488 280.4 12.8 279 17.1
2005-03-18 07:48:23 51°15.889 2°47.46 281.3 12.8 280 17.1
2005-03-18 07:48:28 51°15.891 2°47.431 280 12.9 276 17.1
2005-03-18 07:48:33 51°15.893 2°47.404 278.1 12.8 276 17.1
2005-03-18 07:48:39 51°15.894 2°47.373 277.2 12.8 276 17.2
2005-03-18 07:48:43 51°15.895 2°47.347 276.4 12.8 275 17.3
2005-03-18 07:48:48 51°15.896 2°47.321 275.7 12.8 275 17.2
2005-03-18 07:48:54 51°15.897 2°47.287 275.4 12.7 273 17.2
2005-03-18 07:48:59 51°15.898 2°47.259 274.8 12.7 273 17.3
2005-03-18 07:49:03 51°15.899 2°47.237 274.4 12.7 273 17.4
2005-03-18 07:49:08 51°15.9 2°47.205 274.3 12.8 273 17.4
2005-03-18 07:49:14 51°15.901 2°47.175 274.4 12.8 273 17.6
2005-03-18 07:49:19 51°15.902 2°47.146 274.3 12.8 273 17.5
2005-03-18 07:49:23 51°15.903 2°47.121 274.1 12.8 272 17.6
2005-03-18 07:49:29 51°15.904 2°47.089 273.9 12.8 272 17.5
2005-03-18 07:49:34 51°15.905 2°47.061 273.8 12.8 273 17.6
2005-03-18 07:49:38 51°15.905 2°47.039 274.3 12.8 273 17.6
2005-03-18 07:49:43 51°15.906 2°47.008 274.3 12.8 273 17.6
2005-03-18 07:49:48 51°15.907 2°46.979 274.3 12.8 273 17.7
2005-03-18 07:49:53 51°15.908 2°46.951 274.2 12.8 272 17.7
2005-03-18 07:49:58 51°15.909 2°46.922 273.8 12.8 272 17.7
2005-03-18 07:50:03 51°15.909 2°46.894 273.8 12.9 272 17.7
2005-03-18 07:50:08 51°15.91 2°46.868 273.6 12.9 272 17.6
2005-03-18 07:50:14 51°15.911 2°46.831 273.7 12.9 272 17.7
2005-03-18 07:50:18 51°15.912 2°46.809 273.8 12.9 272 17.6
2005-03-18 07:50:24 51°15.913 2°46.777 274.1 12.9 272 17.6
2005-03-18 07:50:28 51°15.914 2°46.751 274.5 12.9 274 17.5
2005-03-18 07:50:32 51°15.915 2°46.728 274.5 12.9 274 17.5
2005-03-18 07:50:38 51°15.916 2°46.695 274.6 12.9 274 17.5
2005-03-18 07:50:44 51°15.917 2°46.663 274.6 12.8 273 17.4
2005-03-18 07:50:49 51°15.918 2°46.635 274.1 12.8 273 17.3
2005-03-18 07:50:52 51°15.919 2°46.615 274.3 12.8 273 17.3
2005-03-18 07:50:58 51°15.92 2°46.581 274.3 12.8 273 17.2
2005-03-18 07:51:04 51°15.921 2°46.55 274 12.7 273 17.2
2005-03-18 07:51:09 51°15.921 2°46.522 273.6 12.8 272 17.1
2005-03-18 07:51:12 51°15.922 2°46.502 273.6 12.8 272 16.9
2005-03-18 07:51:19 51°15.923 2°46.465 273.6 12.8 272 16.8
2005-03-18 07:51:23 51°15.923 2°46.44 273.2 12.8 272 16.8
2005-03-18 07:51:28 51°15.924 2°46.411 273.7 12.7 272 16.6
2005-03-18 07:51:34 51°15.925 2°46.381 273.9 12.7 272 16.6
2005-03-18 07:51:38 51°15.926 2°46.356 273.9 12.8 272 16.4
2005-03-18 07:51:43 51°15.926 2°46.328 273.6 12.7 272 16.4
2005-03-18 07:51:49 51°15.927 2°46.296 273.5 12.7 272 16.4
2005-03-18 07:51:53 51°15.929 2°46.271 273.7 12.7 272 16.1
2005-03-18 07:51:59 51°15.934 2°46.241 277.1 12.7 272 16.1
2005-03-18 07:52:04 51°15.939 2°46.215 281.9 12.7 272 16
2005-03-18 07:52:08 51°15.945 2°46.191 287 12.6 290 15.6
2005-03-18 07:52:14 51°15.954 2°46.161 292.4 12.7 294 15.4
2005-03-18 07:52:18 51°15.961 2°46.14 295.1 12.7 295 15
2005-03-18 07:52:23 51°15.969 2°46.116 297.5 12.7 295 14.9
2005-03-18 07:52:29 51°15.979 2°46.088 299 12.7 295 14.6
2005-03-18 07:52:34 51°15.988 2°46.063 300.2 12.7 295 14.4
2005-03-18 07:52:38 51°15.995 2°46.044 301.2 12.7 295 14.2
2005-03-18 07:52:42 51°16.003 2°46.022 301.4 13 301 14
2005-03-18 07:52:48 51°16.015 2°45.992 302.6 13 301 14
2005-03-18 07:52:54 51°16.026 2°45.966 303.7 13.1 303 13.8
2005-03-18 07:52:59 51°16.037 2°45.941 304.3 13.1 303 13.1
2005-03-18 07:53:03 51°16.046 2°45.92 304.8 13.1 303 13.3
2005-03-18 07:53:09 51°16.057 2°45.894 305.2 13.2 304 13.1
2005-03-18 07:53:14 51°16.068 2°45.87 305.1 13.2 304 13
2005-03-18 07:53:19 51°16.078 2°45.845 305.3 13.2 304 12.9
2005-03-18 07:53:23 51°16.087 2°45.824 305.5 13.2 305 12.8
2005-03-18 07:53:29 51°16.1 2°45.795 305.8 13.2 305 12.8
2005-03-18 07:53:34 51°16.109 2°45.773 305.9 13.2 305 12.6
2005-03-18 07:53:39 51°16.12 2°45.75 305.9 13.3 305 12.6
2005-03-18 07:53:44 51°16.131 2°45.725 305.8 13.3 305 12.4
2005-03-18 07:53:48 51°16.14 2°45.704 305.8 13.2 305 12.5
2005-03-18 07:53:53 51°16.15 2°45.68 305.9 13.2 305 12.2
2005-03-18 07:53:58 51°16.161 2°45.656 305.9 13.2 306 12.2
2005-03-18 07:54:03 51°16.172 2°45.632 305.9 13.3 306 12
2005-03-18 07:54:08 51°16.183 2°45.608 305.9 13.2 305 11.8
2005-03-18 07:54:13 51°16.193 2°45.585 305.7 13.3 306 11.7
2005-03-18 07:54:18 51°16.204 2°45.561 305.7 13.1 306 11.4
2005-03-18 07:54:23 51°16.214 2°45.537 306.2 13.1 306 11.4
2005-03-18 07:54:29 51°16.226 2°45.51 305.3 13.1 306 11.3
2005-03-18 07:54:34 51°16.236 2°45.486 305.3 13.1 306 11.3
2005-03-18 07:54:38 51°16.246 2°45.464 305.3 13.1 306 11.1
2005-03-18 07:54:43 51°16.256 2°45.441 305.5 13.3 305 11.3
2005-03-18 07:54:48 51°16.266 2°45.419 305.8 13.3 305 11.5
2005-03-18 07:54:54 51°16.278 2°45.389 305.8 13.4 304 11.8
2005-03-18 07:54:59 51°16.289 2°45.365 305.5 13.5 305 12
2005-03-18 07:55:04 51°16.299 2°45.339 305.4 13.5 303 12
2005-03-18 07:55:08 51°16.309 2°45.317 305.2 13.4 304 12.2
2005-03-18 07:55:14 51°16.32 2°45.291 305.4 13.4 304 12.2
2005-03-18 07:55:18 51°16.33 2°45.269 305.5 13.3 304 12.2
2005-03-18 07:55:24 51°16.341 2°45.241 305.4 13.3 304 12
2005-03-18 07:55:28 51°16.351 2°45.22 305.6 13.4 305 12
2005-03-18 07:55:34 51°16.363 2°45.193 305.9 13.3 305 11.9
2005-03-18 07:55:39 51°16.373 2°45.169 306.3 13.4 305 11.8
2005-03-18 07:55:44 51°16.384 2°45.144 306 13.4 305 11.7
2005-03-18 07:55:48 51°16.392 2°45.125 305.8 13.4 304 11.8
2005-03-18 07:55:53 51°16.403 2°45.098 305.8 13.4 305 12.3
2005-03-18 07:55:58 51°16.414 2°45.074 305.9 13.3 304 12.4
2005-03-18 07:56:04 51°16.425 2°45.047 305.9 13.4 304 12.6
2005-03-18 07:56:08 51°16.434 2°45.028 305.9 13.4 305 12.6
2005-03-18 07:56:13 51°16.446 2°45.001 306.2 13.4 305 12.6
2005-03-18 07:56:18 51°16.456 2°44.976 306.7 13.3 306 12.4
2005-03-18 07:56:24 51°16.468 2°44.949 306 13.3 306 11.7
2005-03-18 07:56:29 51°16.479 2°44.926 306 13.3 306 11.7
2005-03-18 07:56:34 51°16.49 2°44.901 306.6 13.4 306 11.9
2005-03-18 07:56:38 51°16.499 2°44.879 306.6 13.4 305 11.7
2005-03-18 07:56:44 51°16.511 2°44.853 306.8 13.4 305 11.5
2005-03-18 07:56:49 51°16.522 2°44.829 306.7 13.4 305 11.2
2005-03-18 07:56:54 51°16.533 2°44.805 307.3 13.4 306 11.4
2005-03-18 07:56:58 51°16.543 2°44.783 307 13.5 306 11.5
2005-03-18 07:57:04 51°16.555 2°44.757 306.7 13.5 306 11.6
2005-03-18 07:57:08 51°16.565 2°44.734 307.6 13.5 306 11.7
2005-03-18 07:57:14 51°16.577 2°44.709 307 13.5 306 12.1
2005-03-18 07:57:19 51°16.588 2°44.684 306.8 13.5 307 12.4
2005-03-18 07:57:23 51°16.598 2°44.663 307.1 13.5 306 12.5
2005-03-18 07:57:28 51°16.609 2°44.638 307.1 13.5 306 12.5
2005-03-18 07:57:33 51°16.62 2°44.614 306.4 13.4 306 12.7
2005-03-18 07:57:38 51°16.629 2°44.593 306.4 13.5 305 13
2005-03-18 07:57:43 51°16.641 2°44.565 306.2 13.4 305 13.1
2005-03-18 07:57:49 51°16.653 2°44.538 306.2 13.4 305 13.1
2005-03-18 07:57:54 51°16.665 2°44.513 306.4 13.4 305 13.7
2005-03-18 07:57:58 51°16.674 2°44.493 307 13.4 306 14
2005-03-18 07:58:04 51°16.686 2°44.466 306.9 13.4 306 14.4
2005-03-18 07:58:08 51°16.696 2°44.444 306.7 13.5 306 14.8
2005-03-18 07:58:14 51°16.708 2°44.418 306.6 13.5 305 15
2005-03-18 07:58:19 51°16.72 2°44.391 306.8 13.5 305 15.3
2005-03-18 07:58:24 51°16.729 2°44.368 306.8 13.5 305 15.4
2005-03-18 07:58:28 51°16.74 2°44.346 306.8 13.6 306 15.5
2005-03-18 07:58:34 51°16.752 2°44.32 306.9 13.6 306 15.5
2005-03-18 07:58:38 51°16.762 2°44.298 307.2 13.6 306 15.6
2005-03-18 07:58:44 51°16.774 2°44.272 307.2 13.6 307 15.8
2005-03-18 07:58:48 51°16.784 2°44.249 307 13.5 305 15.7
2005-03-18 07:58:54 51°16.797 2°44.22 306.6 13.4 305 15.9
2005-03-18 07:58:58 51°16.806 2°44.202 306.3 13.4 306 16
2005-03-18 07:59:04 51°16.818 2°44.175 307 13.4 306 15.9
2005-03-18 07:59:08 51°16.826 2°44.156 307.1 13.4 306 16.1
2005-03-18 07:59:14 51°16.839 2°44.127 306.8 13.3 305 16.1
2005-03-18 07:59:19 51°16.85 2°44.103 306.5 13.4 305 16.1
2005-03-18 07:59:24 51°16.86 2°44.079 306.3 13.4 305 16.2
2005-03-18 07:59:28 51°16.87 2°44.056 306.5 13.3 305 16.3
2005-03-18 07:59:34 51°16.882 2°44.03 306.4 13.4 305 16.2
2005-03-18 07:59:38 51°16.892 2°44.008 306.7 13.4 306 16.2
2005-03-18 07:59:43 51°16.902 2°43.984 307 13.4 305 16.2
2005-03-18 07:59:48 51°16.913 2°43.959 307 13.4 305 16
2005-03-18 07:59:54 51°16.925 2°43.933 306.7 13.4 305 16
2005-03-18 07:59:58 51°16.933 2°43.913 307 13.4 305 16.2
2005-03-18 08:00:04 51°16.946 2°43.884 306.5 13.4 305 16.1
2005-03-18 08:00:08 51°16.954 2°43.864 306.2 13.4 305 15.8
2005-03-18 08:00:13 51°16.966 2°43.838 306.3 13.4 305 15.7
2005-03-18 08:00:19 51°16.978 2°43.811 306.7 13.4 304 15.7
2005-03-18 08:00:22 51°16.985 2°43.794 306.7 13.4 305 15.8
2005-03-18 08:00:28 51°16.997 2°43.767 306.7 13.4 305 15.6
2005-03-18 08:00:34 51°17.01 2°43.739 307 13.4 305 15.7
2005-03-18 08:00:39 51°17.021 2°43.714 306.8 13.4 305 15.4
2005-03-18 08:00:44 51°17.031 2°43.691 307.1 13.3 306 15.4
2005-03-18 08:00:48 51°17.04 2°43.671 307.3 13.3 306 15.2
2005-03-18 08:00:54 51°17.054 2°43.64 307.4 13.4 306 15.3
2005-03-18 08:00:58 51°17.062 2°43.62 307.4 13.4 306 15.6
2005-03-18 08:01:04 51°17.074 2°43.594 307 13.4 306 15.7
2005-03-18 08:01:08 51°17.083 2°43.574 306.9 13.4 305 15.6
2005-03-18 08:01:14 51°17.095 2°43.546 307.2 13.4 305 15.5
2005-03-18 08:01:18 51°17.105 2°43.524 307 13.4 305 15.4
2005-03-18 08:01:24 51°17.116 2°43.497 306.9 13.3 305 15.6
2005-03-18 08:01:29 51°17.128 2°43.473 306.7 13.3 305 15.4
2005-03-18 08:01:34 51°17.138 2°43.449 306.7 13.3 305 15.3
2005-03-18 08:01:38 51°17.148 2°43.427 306.7 13.3 305 15.3
2005-03-18 08:01:44 51°17.159 2°43.4 306.8 13.4 305 15
2005-03-18 08:01:49 51°17.17 2°43.375 306.7 13.4 305 14.7
2005-03-18 08:01:54 51°17.181 2°43.352 307 13.4 305 14.5
2005-03-18 08:01:59 51°17.192 2°43.327 307.4 13.3 305 13.8
2005-03-18 08:02:04 51°17.202 2°43.303 307.5 13.3 305 13
2005-03-18 08:02:08 51°17.211 2°43.284 307.3 13.3 305 11.9
2005-03-18 08:02:14 51°17.224 2°43.253 307 13.3 305 13.6
2005-03-18 08:02:18 51°17.233 2°43.233 307 13.3 305 13.8
2005-03-18 08:02:24 51°17.245 2°43.207 307.1 13.4 305 13.6
2005-03-18 08:02:29 51°17.256 2°43.182 307.3 13.4 305 12.9
2005-03-18 08:02:34 51°17.266 2°43.158 307.1 13.4 305 11.7
2005-03-18 08:02:39 51°17.276 2°43.134 307 13.4 305 12
2005-03-18 08:02:43 51°17.286 2°43.113 307 13.2 305 12.2
2005-03-18 08:02:48 51°17.297 2°43.089 307 13.1 307 12.2
2005-03-18 08:02:54 51°17.309 2°43.063 307 13.2 307 12.1
2005-03-18 08:02:58 51°17.318 2°43.042 307.3 13.2 307 12.2
2005-03-18 08:03:04 51°17.33 2°43.016 307.1 13.2 307 12
2005-03-18 08:03:08 51°17.339 2°42.993 307 13.2 305 11.7
2005-03-18 08:03:14 51°17.351 2°42.967 306.9 13.2 305 11.3
2005-03-18 08:03:19 51°17.361 2°42.944 306.4 13.2 305 11
2005-03-18 08:03:24 51°17.371 2°42.919 306.6 13.2 305 10.8
2005-03-18 08:03:29 51°17.382 2°42.896 306.6 13.2 305 10.4
2005-03-18 08:03:34 51°17.393 2°42.872 307 13.2 305 9.6
2005-03-18 08:03:39 51°17.404 2°42.849 307.4 13.2 306 11.4
2005-03-18 08:03:44 51°17.415 2°42.825 307.7 13.2 306 12.3
2005-03-18 08:03:48 51°17.425 2°42.803 308.1 13.3 306 12.9
2005-03-18 08:03:54 51°17.437 2°42.777 307.7 13.3 306 13
2005-03-18 08:03:58 51°17.446 2°42.755 307.7 13.5 306 13.4
2005-03-18 08:04:02 51°17.454 2°42.739 307.3 13.3 306 14
2005-03-18 08:04:09 51°17.47 2°42.705 307.4 13.3 306 15.1
2005-03-18 08:04:14 51°17.481 2°42.681 307.8 13.3 306 16.3
2005-03-18 08:04:19 51°17.492 2°42.656 307.9 13.3 306 18.3
2005-03-18 08:04:24 51°17.503 2°42.633 307.7 13.5 306 20.4
2005-03-18 08:04:28 51°17.513 2°42.611 307.4 13.5 307 21.3
2005-03-18 08:04:34 51°17.525 2°42.585 307.2 13.5 307 21.9
2005-03-18 08:04:38 51°17.535 2°42.564 307.7 13.5 307 22.1
2005-03-18 08:04:42 51°17.544 2°42.545 308.3 13.4 307 22.5
2005-03-18 08:04:48 51°17.556 2°42.519 307.6 13.4 306 22.8
2005-03-18 08:04:54 51°17.57 2°42.49 307.1 13.4 306 23.2
2005-03-18 08:04:59 51°17.581 2°42.466 307 13.4 306 23.3
2005-03-18 08:05:04 51°17.592 2°42.442 307.4 13.4 307 23.6
2005-03-18 08:05:08 51°17.601 2°42.423 307.6 13.4 307 23.7
2005-03-18 08:05:14 51°17.615 2°42.392 307.5 13.4 307 23.6
2005-03-18 08:05:18 51°17.624 2°42.373 307.3 13.5 308 23.9
2005-03-18 08:05:24 51°17.637 2°42.347 307.4 13.5 308 23.7
2005-03-18 08:05:28 51°17.646 2°42.328 307.8 13.5 308 23.9
2005-03-18 08:05:34 51°17.66 2°42.3 307.9 13.5 308 24.1
2005-03-18 08:05:38 51°17.669 2°42.281 307.3 13.5 308 24.2
2005-03-18 08:05:44 51°17.683 2°42.252 307.2 13.5 307 24.2
2005-03-18 08:05:48 51°17.693 2°42.23 307.4 13.5 307 24.4
2005-03-18 08:05:54 51°17.706 2°42.204 307.5 13.5 309 24.5
2005-03-18 08:05:58 51°17.716 2°42.183 307.7 13.5 309 24.6
2005-03-18 08:06:04 51°17.729 2°42.157 307.2 13.5 309 24.6
2005-03-18 08:06:08 51°17.738 2°42.135 307 13.4 306 24.5
2005-03-18 08:06:14 51°17.75 2°42.11 307.1 13.4 306 24.7
2005-03-18 08:06:19 51°17.761 2°42.085 307 13.3 306 24.6
2005-03-18 08:06:23 51°17.77 2°42.064 306.5 13.3 306 24.7
2005-03-18 08:06:29 51°17.782 2°42.038 306.2 13.3 306 24.6
2005-03-18 08:06:34 51°17.794 2°42.011 306.6 13.3 306 24.7
2005-03-18 08:06:38 51°17.803 2°41.992 306.7 13.3 306 24.8
2005-03-18 08:06:44 51°17.814 2°41.965 306.8 13.3 305 24.8
2005-03-18 08:06:48 51°17.823 2°41.946 306.6 13.3 305 24.8
2005-03-18 08:06:54 51°17.835 2°41.917 306.2 13.3 305 24.7
2005-03-18 08:06:58 51°17.845 2°41.896 306.6 13.3 306 25
2005-03-18 08:07:04 51°17.857 2°41.87 306.9 13.2 306 24.8
2005-03-18 08:07:09 51°17.868 2°41.847 307.9 13.2 306 24.9
2005-03-18 08:07:14 51°17.88 2°41.824 308.3 13.3 307 24.9
2005-03-18 08:07:18 51°17.89 2°41.802 308.8 13.3 307 24.6
2005-03-18 08:07:23 51°17.901 2°41.779 309.1 13.3 308 24.7
2005-03-18 08:07:28 51°17.913 2°41.755 309.5 13.4 308 24.8
2005-03-18 08:07:34 51°17.925 2°41.73 309.4 13.4 308 24.7
2005-03-18 08:07:38 51°17.935 2°41.708 309.2 13.4 308 24.5
2005-03-18 08:07:44 51°17.948 2°41.683 309.1 13.4 308 24.6
2005-03-18 08:07:48 51°17.957 2°41.664 309.3 13.4 308 24.4
2005-03-18 08:07:53 51°17.969 2°41.638 309.1 13.4 307 24.3
2005-03-18 08:07:58 51°17.98 2°41.614 308.3 13.4 307 24.2
2005-03-18 08:08:04 51°17.993 2°41.588 309 13.4 307 23.9
2005-03-18 08:08:08 51°18.001 2°41.569 308.7 13.3 307 24
2005-03-18 08:08:14 51°18.016 2°41.538 309.1 13.3 307 24
2005-03-18 08:08:18 51°18.024 2°41.519 308.9 13.3 307 23.9
2005-03-18 08:08:23 51°18.036 2°41.496 308.4 13.3 307 23.8
2005-03-18 08:08:28 51°18.047 2°41.472 309.1 13.3 308 23
2005-03-18 08:08:34 51°18.059 2°41.448 309.5 13.3 308 22.6
2005-03-18 08:08:38 51°18.069 2°41.429 309.8 13.3 308 23.1
2005-03-18 08:08:44 51°18.082 2°41.401 310.2 13.3 308 23.2
2005-03-18 08:08:48 51°18.093 2°41.38 310.4 13.3 308 23.1
2005-03-18 08:08:54 51°18.105 2°41.354 310 13.3 308 22.8
2005-03-18 08:08:58 51°18.114 2°41.335 309.4 13.3 308 22.8
2005-03-18 08:09:04 51°18.127 2°41.307 309.7 13.3 308 22.6
2005-03-18 08:09:08 51°18.137 2°41.289 309.7 13.4 308 22.1
2005-03-18 08:09:14 51°18.15 2°41.262 309.8 13.4 308 21.5
2005-03-18 08:09:19 51°18.161 2°41.237 309.6 13.4 308 19.8
2005-03-18 08:09:24 51°18.172 2°41.215 309.6 13.4 308 19.7
2005-03-18 08:09:28 51°18.183 2°41.193 309.7 13.3 308 20.6
2005-03-18 08:09:34 51°18.195 2°41.168 309.7 13.3 307 20.9
2005-03-18 08:09:38 51°18.205 2°41.147 309.1 13.3 307 21
2005-03-18 08:09:43 51°18.216 2°41.123 309.1 13.3 308 20.9
2005-03-18 08:09:48 51°18.227 2°41.099 309.1 13.3 307 21
2005-03-18 08:09:53 51°18.238 2°41.076 308.8 13.3 307 20.7
2005-03-18 08:09:59 51°18.25 2°41.05 309.2 13.3 307 20.4
2005-03-18 08:10:04 51°18.261 2°41.027 309.1 13.3 307 19.5
2005-03-18 08:10:09 51°18.273 2°41.004 308.9 13.3 306 18.6
2005-03-18 08:10:14 51°18.284 2°40.98 308.9 13.3 306 16.3
2005-03-18 08:10:18 51°18.294 2°40.96 309.1 13.3 306 17.3
2005-03-18 08:10:24 51°18.307 2°40.935 309.9 13.3 309 17.6
2005-03-18 08:10:28 51°18.317 2°40.913 310 13.2 308 16.7
2005-03-18 08:10:34 51°18.33 2°40.886 309.7 13.2 308 16.9
2005-03-18 08:10:38 51°18.339 2°40.867 309.6 13.2 308 17.1
2005-03-18 08:10:43 51°18.349 2°40.847 309.5 13.2 308 15.7
2005-03-18 08:10:48 51°18.362 2°40.821 309.2 13.1 307 14.3
2005-03-18 08:10:54 51°18.374 2°40.796 309.4 13.1 308 16.6
2005-03-18 08:10:58 51°18.384 2°40.775 309.6 13.2 308 18
2005-03-18 08:11:04 51°18.397 2°40.75 310.1 13.3 308 19.3
2005-03-18 08:11:08 51°18.406 2°40.731 309.8 13.3 308 19.6
2005-03-18 08:11:14 51°18.42 2°40.703 309.7 13.3 308 19.6
2005-03-18 08:11:19 51°18.431 2°40.68 309.1 13.3 308 20.2
2005-03-18 08:11:22 51°18.439 2°40.664 309.3 13.3 309 20.2
2005-03-18 08:11:29 51°18.453 2°40.634 309.5 13.3 307 18.1
2005-03-18 08:11:34 51°18.464 2°40.61 309.1 13.3 307 13.8
2005-03-18 08:11:38 51°18.474 2°40.59 309.5 13.3 307 15.4
2005-03-18 08:11:43 51°18.486 2°40.567 309.5 13.1 308 17.6
2005-03-18 08:11:48 51°18.497 2°40.544 310 13.1 309 18.9
2005-03-18 08:11:54 51°18.511 2°40.516 309.7 13.2 308 18.8
2005-03-18 08:11:58 51°18.52 2°40.497 309.4 13.2 308 16.7
2005-03-18 08:12:04 51°18.532 2°40.472 309.5 13.2 308 14.1
2005-03-18 08:12:08 51°18.541 2°40.454 309.2 13.2 309 13.8
2005-03-18 08:12:13 51°18.554 2°40.429 309.8 13.2 309 14.9
2005-03-18 08:12:18 51°18.566 2°40.406 310.3 13.2 309 13.6
2005-03-18 08:12:24 51°18.579 2°40.381 310.1 13.2 309 13.3
2005-03-18 08:12:28 51°18.588 2°40.363 309.8 13.2 310 17.2
2005-03-18 08:12:33 51°18.601 2°40.338 309.6 13.2 308 20.2
2005-03-18 08:12:38 51°18.612 2°40.314 309.3 13.3 308 21.7
2005-03-18 08:12:44 51°18.625 2°40.289 309.2 13.3 308 22.4
2005-03-18 08:12:48 51°18.634 2°40.271 309.2 13.3 309 22.9
2005-03-18 08:12:53 51°18.647 2°40.245 309.4 13.3 309 23
2005-03-18 08:12:58 51°18.658 2°40.222 309.3 13.3 309 23.3
2005-03-18 08:13:04 51°18.671 2°40.197 309.1 13.3 309 23.3
2005-03-18 08:13:08 51°18.68 2°40.178 308.8 13.4 309 24
2005-03-18 08:13:14 51°18.694 2°40.151 308.9 13.3 309 24.2
2005-03-18 08:13:18 51°18.704 2°40.13 309.5 13.4 309 24
2005-03-18 08:13:24 51°18.717 2°40.104 309.5 13.4 309 24.9
2005-03-18 08:13:29 51°18.728 2°40.082 309.2 13.4 308 25.3
2005-03-18 08:13:34 51°18.74 2°40.059 309.1 13.4 308 25.4
2005-03-18 08:13:39 51°18.752 2°40.036 309.2 13.3 309 25.3
2005-03-18 08:13:44 51°18.764 2°40.014 310 13.3 309 25.3
2005-03-18 08:13:48 51°18.775 2°39.993 310.5 13.3 309 25.3
2005-03-18 08:13:54 51°18.787 2°39.968 309.8 13.2 309 24.2
2005-03-18 08:13:59 51°18.798 2°39.945 309.3 13.2 309 24.1
2005-03-18 08:14:04 51°18.81 2°39.922 308.5 13.3 308 24.2
2005-03-18 08:14:09 51°18.822 2°39.899 308.9 13.3 309 24.2
2005-03-18 08:14:14 51°18.833 2°39.876 309.1 13.3 308 24.4
2005-03-18 08:14:18 51°18.843 2°39.855 308.6 13.3 308 24.3
2005-03-18 08:14:23 51°18.855 2°39.832 308.9 13.3 308 24.3
2005-03-18 08:14:28 51°18.865 2°39.811 309.2 13.3 309 24.6
2005-03-18 08:14:34 51°18.878 2°39.784 309.1 13.4 309 24.8
2005-03-18 08:14:38 51°18.889 2°39.763 308.8 13.4 309 24.6
2005-03-18 08:14:44 51°18.901 2°39.738 309.1 13.4 309 24.9
2005-03-18 08:14:48 51°18.912 2°39.717 308.7 13.1 308 24.8
2005-03-18 08:14:54 51°18.924 2°39.692 309.2 13.2 309 24.8
2005-03-18 08:14:59 51°18.935 2°39.668 308.8 13.2 307 24.8
2005-03-18 08:15:04 51°18.946 2°39.645 309.1 13.2 308 25
2005-03-18 08:15:08 51°18.957 2°39.624 309.1 13.2 308 25
2005-03-18 08:15:14 51°18.969 2°39.599 309.6 13.4 309 25.2
2005-03-18 08:15:19 51°18.981 2°39.575 309.1 13.4 309 25.3
2005-03-18 08:15:24 51°18.992 2°39.552 309.3 13.4 309 25.5
2005-03-18 08:15:28 51°19.002 2°39.53 309.4 13.3 308 25.7
2005-03-18 08:15:34 51°19.016 2°39.503 309.1 13.3 308 26
2005-03-18 08:15:38 51°19.025 2°39.484 309.6 13.4 310 26.2
2005-03-18 08:15:44 51°19.038 2°39.459 309.5 13.4 308 26.4
2005-03-18 08:15:49 51°19.049 2°39.435 309.1 13.4 308 26.6
2005-03-18 08:15:54 51°19.06 2°39.412 309.2 13.4 308 26.8
2005-03-18 08:15:58 51°19.071 2°39.391 309.3 13.4 307 26.9
2005-03-18 08:16:04 51°19.084 2°39.366 309.2 13.4 307 27.2
2005-03-18 08:16:08 51°19.093 2°39.347 309.2 13.4 309 27.1
2005-03-18 08:16:13 51°19.105 2°39.322 309.9 13.4 309 27.4
2005-03-18 08:16:19 51°19.119 2°39.296 309.3 13.2 309 27.4
2005-03-18 08:16:24 51°19.129 2°39.275 309.9 13.2 309 27.8
2005-03-18 08:16:29 51°19.142 2°39.249 310.2 13.2 309 27.8
2005-03-18 08:16:34 51°19.152 2°39.228 309 13.2 309 28.1
2005-03-18 08:16:38 51°19.161 2°39.208 309.1 13.1 308 28.5
2005-03-18 08:16:44 51°19.174 2°39.182 308.8 13.1 307 28.5
2005-03-18 08:16:47 51°19.181 2°39.166 309.4 13.1 308 29
2005-03-18 08:16:54 51°19.196 2°39.136 308.8 13.1 308 29
2005-03-18 08:16:58 51°19.206 2°39.115 308.7 13.2 307 29.1
2005-03-18 08:17:04 51°19.218 2°39.09 309.1 13.1 307 29
2005-03-18 08:17:09 51°19.229 2°39.066 309.1 13.2 307 29
2005-03-18 08:17:13 51°19.238 2°39.045 309.1 13.2 307 29
2005-03-18 08:17:18 51°19.248 2°39.024 309.1 13.2 307 29.1
2005-03-18 08:17:24 51°19.261 2°38.997 308.9 13.2 307 29.1
2005-03-18 08:17:29 51°19.273 2°38.973 309.1 13.2 307 28.8
2005-03-18 08:17:34 51°19.285 2°38.948 309.9 13.2 307 29.1
2005-03-18 08:17:38 51°19.294 2°38.929 309.6 13.2 307 29
2005-03-18 08:17:44 51°19.306 2°38.904 309.6 13.2 307 28.9
2005-03-18 08:17:49 51°19.318 2°38.88 309.2 13.2 307 28.5
2005-03-18 08:17:54 51°19.328 2°38.857 309.1 13.2 307 28.7
2005-03-18 08:17:58 51°19.338 2°38.836 309.5 13.2 308 28.9
2005-03-18 08:18:04 51°19.351 2°38.81 309.1 13.2 307 28.6
2005-03-18 08:18:08 51°19.359 2°38.791 309.8 13.3 308 28.4
2005-03-18 08:18:14 51°19.374 2°38.762 309.4 13.2 307 28.3
2005-03-18 08:18:18 51°19.383 2°38.743 309.1 13.2 308 27.8
2005-03-18 08:18:24 51°19.395 2°38.717 309.3 13.2 306 27.8
2005-03-18 08:18:28 51°19.404 2°38.698 309.1 13.2 307 27.5
2005-03-18 08:18:34 51°19.417 2°38.67 309.1 13.3 307 27.5
2005-03-18 08:18:39 51°19.429 2°38.647 309.1 13.3 307 27.4
2005-03-18 08:18:44 51°19.44 2°38.623 309.8 13.3 307 26.7
2005-03-18 08:18:48 51°19.45 2°38.602 309.8 13.3 308 26.6
2005-03-18 08:18:53 51°19.461 2°38.579 309.2 13.3 307 26.1
2005-03-18 08:18:59 51°19.474 2°38.553 309.4 13.3 308 26
2005-03-18 08:19:04 51°19.485 2°38.529 309.7 13.3 308 25.2
2005-03-18 08:19:08 51°19.496 2°38.509 309.5 13.3 307 25.1
2005-03-18 08:19:14 51°19.508 2°38.483 309.6 13.4 308 25
2005-03-18 08:19:19 51°19.518 2°38.459 310.1 13.4 308 24.8
2005-03-18 08:19:24 51°19.53 2°38.436 309.1 13.4 308 25
2005-03-18 08:19:28 51°19.539 2°38.417 308.7 13.4 308 24.7
2005-03-18 08:19:34 51°19.552 2°38.389 309.1 13.4 307 23.8
2005-03-18 08:19:38 51°19.562 2°38.367 309.2 13.4 307 23.1
2005-03-18 08:19:43 51°19.573 2°38.344 308.9 13.4 307 23.4
2005-03-18 08:19:49 51°19.586 2°38.317 309 13.4 307 23.8
2005-03-18 08:19:54 51°19.598 2°38.292 309.5 13.4 307 23.8
2005-03-18 08:19:58 51°19.607 2°38.273 309.2 13.3 307 23.2
2005-03-18 08:20:03 51°19.618 2°38.249 309.3 13.4 306 22.9
2005-03-18 08:20:08 51°19.628 2°38.228 309.4 13.3 307 23.3
2005-03-18 08:20:14 51°19.643 2°38.198 309.7 13.3 307 23.6
2005-03-18 08:20:18 51°19.652 2°38.179 310.3 13.3 307 23.1
2005-03-18 08:20:24 51°19.664 2°38.153 310.2 13.4 307 22.5
2005-03-18 08:20:28 51°19.675 2°38.132 309.8 13.4 307 22.8
2005-03-18 08:20:34 51°19.687 2°38.106 309.5 13.4 306 22.7
2005-03-18 08:20:38 51°19.696 2°38.088 310 13.4 306 22.9
2005-03-18 08:20:44 51°19.709 2°38.06 309.1 13.4 306 21.6
2005-03-18 08:20:48 51°19.718 2°38.041 309.3 13.3 308 21.7
2005-03-18 08:20:52 51°19.728 2°38.022 309.7 13.4 308 22.9
2005-03-18 08:20:59 51°19.743 2°37.989 309.7 13.4 308 23
2005-03-18 08:21:04 51°19.754 2°37.965 309.1 13.4 307 23.3
2005-03-18 08:21:09 51°19.766 2°37.942 309.5 13.4 307 23.1
2005-03-18 08:21:14 51°19.777 2°37.918 309.3 13.4 307 22.7
2005-03-18 08:21:19 51°19.788 2°37.894 309.2 13.3 308 22.8
2005-03-18 08:21:24 51°19.799 2°37.871 309.4 13.3 308 22.7
2005-03-18 08:21:28 51°19.809 2°37.849 309.1 13.2 307 22.6
2005-03-18 08:21:34 51°19.821 2°37.824 309.1 13.4 307 22.9
2005-03-18 08:21:38 51°19.832 2°37.804 309.1 13.4 307 22.8
2005-03-18 08:21:44 51°19.844 2°37.778 310.1 13.4 307 22.6
2005-03-18 08:21:49 51°19.855 2°37.755 309.9 13.2 308 22
2005-03-18 08:21:54 51°19.866 2°37.732 310.1 13.3 307 20.7
2005-03-18 08:21:58 51°19.876 2°37.711 309.3 13.3 307 20.8
2005-03-18 08:22:04 51°19.889 2°37.685 308.7 13.3 307 21.5
2005-03-18 08:22:08 51°19.898 2°37.667 309.8 13.2 308 21.4
2005-03-18 08:22:14 51°19.911 2°37.639 309.6 13.2 307 20.6
2005-03-18 08:22:18 51°19.921 2°37.618 309.9 13.2 307 21.9
2005-03-18 08:22:24 51°19.934 2°37.592 309.7 13.2 307 22.9
2005-03-18 08:22:28 51°19.944 2°37.57 309 13.3 308 23.3
2005-03-18 08:22:34 51°19.956 2°37.545 309.4 13.2 306 23.5
2005-03-18 08:22:38 51°19.966 2°37.524 309.1 13.2 306 23.5
2005-03-18 08:22:44 51°19.978 2°37.498 308.4 13.2 306 23.2
2005-03-18 08:22:48 51°19.988 2°37.476 308.4 13.3 307 22.7
2005-03-18 08:22:54 51°20 2°37.451 308.9 13.3 307 22.9
2005-03-18 08:22:58 51°20.01 2°37.43 308.9 13.2 307 22.9
2005-03-18 08:23:04 51°20.023 2°37.404 308.8 13.3 306 22.9
2005-03-18 08:23:09 51°20.033 2°37.381 309.1 13.3 306 21.9
2005-03-18 08:23:14 51°20.045 2°37.358 309.1 13.3 306 20.6
2005-03-18 08:23:18 51°20.054 2°37.339 309.3 13.2 308 22
2005-03-18 08:23:24 51°20.067 2°37.311 309.1 13.3 307 22.7
2005-03-18 08:23:28 51°20.078 2°37.29 309.8 13.3 309 22.7
2005-03-18 08:23:34 51°20.09 2°37.265 309.6 13.3 307 22.7
2005-03-18 08:23:39 51°20.101 2°37.241 309.4 13.3 307 22.7
2005-03-18 08:23:44 51°20.112 2°37.217 308.7 13.3 307 22.7
2005-03-18 08:23:48 51°20.122 2°37.196 309.5 13.2 306 23.1
2005-03-18 08:23:54 51°20.135 2°37.171 308.8 13.2 306 22.6
2005-03-18 08:23:59 51°20.145 2°37.148 309.2 13.2 306 22.8
2005-03-18 08:24:04 51°20.157 2°37.125 309.3 13.2 308 22.6
2005-03-18 08:24:09 51°20.169 2°37.099 309.1 13.2 308 22.3
2005-03-18 08:24:14 51°20.18 2°37.076 309.5 13.2 308 22.6
2005-03-18 08:24:19 51°20.19 2°37.055 309.8 13.2 308 22.3
2005-03-18 08:24:24 51°20.201 2°37.032 309.4 13.3 308 21.1
2005-03-18 08:24:28 51°20.212 2°37.01 309.1 13.3 307 21
2005-03-18 08:24:33 51°20.223 2°36.986 309.5 13.4 308 21
2005-03-18 08:24:38 51°20.234 2°36.963 309.1 13.4 308 21.5
2005-03-18 08:24:44 51°20.247 2°36.937 309.1 13.4 308 21.2
2005-03-18 08:24:48 51°20.256 2°36.919 309.1 13.2 307 21.8
2005-03-18 08:24:54 51°20.27 2°36.888 308.8 13.2 308 21.9
2005-03-18 08:24:58 51°20.279 2°36.87 308.7 13.3 306 21.4
2005-03-18 08:25:04 51°20.291 2°36.844 308.9 13.3 306 21.7
2005-03-18 08:25:08 51°20.3 2°36.825 309.3 13.3 308 22.1
2005-03-18 08:25:14 51°20.315 2°36.795 309.2 13.4 308 22.7
2005-03-18 08:25:18 51°20.324 2°36.776 309.8 13.4 308 23.2
2005-03-18 08:25:24 51°20.337 2°36.749 309.5 13.3 307 23.4
2005-03-18 08:25:28 51°20.347 2°36.728 308.8 13.4 307 22.9
2005-03-18 08:25:33 51°20.358 2°36.705 308.9 13.2 307 23
2005-03-18 08:25:39 51°20.37 2°36.679 309.3 13.2 307 21.9
2005-03-18 08:25:44 51°20.381 2°36.656 309.3 13.3 306 21.8
2005-03-18 08:25:48 51°20.391 2°36.634 309.4 13.3 307 22
2005-03-18 08:25:54 51°20.403 2°36.609 309.5 13.3 307 21.5
2005-03-18 08:25:58 51°20.414 2°36.588 309.2 13.3 307 21.7
2005-03-18 08:26:03 51°20.425 2°36.565 310.2 13.4 308 21.7
2005-03-18 08:26:08 51°20.436 2°36.541 309.4 13.3 308 21.6
2005-03-18 08:26:13 51°20.448 2°36.518 309.2 13.3 308 21.4
2005-03-18 08:26:18 51°20.459 2°36.494 309.9 13.4 307 21.4
2005-03-18 08:26:24 51°20.471 2°36.468 308.9 13.4 308 21.2
2005-03-18 08:26:28 51°20.479 2°36.449 309 13.3 307 21.1
2005-03-18 08:26:34 51°20.493 2°36.42 308.6 13.4 306 20.7
2005-03-18 08:26:38 51°20.503 2°36.4 308.9 13.3 307 20.8
2005-03-18 08:26:44 51°20.516 2°36.375 309.1 13.4 309 20.9
2005-03-18 08:26:49 51°20.53 2°36.355 311.2 13.4 310 21.2
2005-03-18 08:26:54 51°20.544 2°36.335 315.7 13.5 318 20.9
2005-03-18 08:26:59 51°20.559 2°36.318 320.1 13.5 318 20.8
2005-03-18 08:27:04 51°20.575 2°36.304 325.7 13.3 327 21.1
2005-03-18 08:27:08 51°20.591 2°36.293 331.1 13.2 330 20.5
2005-03-18 08:27:14 51°20.61 2°36.28 337.5 13.2 330 20.2
2005-03-18 08:27:19 51°20.628 2°36.27 339.6 13.2 330 20.6
2005-03-18 08:27:24 51°20.646 2°36.262 343.2 13.5 341 20.9
2005-03-18 08:27:28 51°20.66 2°36.257 346.6 13.7 344 21.6
2005-03-18 08:27:34 51°20.682 2°36.25 349.1 13.5 347 21.6
2005-03-18 08:27:38 51°20.698 2°36.246 351.3 13.5 347 21.6
2005-03-18 08:27:44 51°20.717 2°36.244 354.2 12.7 353 21.8
2005-03-18 08:27:48 51°20.733 2°36.24 358.3 12.6 355 22.3
2005-03-18 08:27:54 51°20.751 2°36.241 357.6 12.2 354 22.5
2005-03-18 08:27:59 51°20.767 2°36.239 0.4 12.2 354 22.6
2005-03-18 08:28:04 51°20.784 2°36.238 1.1 12 357 22.9
2005-03-18 08:28:08 51°20.799 2°36.239 0.9 11.8 -999 23.5
2005-03-18 08:28:14 51°20.816 2°36.238 3.8 11.8 2 24
2005-03-18 08:28:19 51°20.833 2°36.24 2.9 11.8 2 24.3
2005-03-18 08:28:24 51°20.849 2°36.239 4 11.9 3 24.5
2005-03-18 08:28:29 51°20.867 2°36.24 2.9 11.8 358 23.6
2005-03-18 08:28:34 51°20.882 2°36.24 3.6 11.8 358 24.7
2005-03-18 08:28:38 51°20.897 2°36.24 3.3 11.8 1 25.1
2005-03-18 08:28:44 51°20.915 2°36.241 3.2 11.9 2 24.4
2005-03-18 08:28:49 51°20.931 2°36.241 3.8 11.9 2 25.2
2005-03-18 08:28:54 51°20.948 2°36.241 2.9 11.8 3 26.6
2005-03-18 08:28:58 51°20.962 2°36.241 3.3 11.8 -999 26.1
2005-03-18 08:29:04 51°20.981 2°36.241 3.9 11.8 -999 24.7
2005-03-18 08:29:08 51°20.996 2°36.242 3.4 11.8 -999 24
2005-03-18 08:29:14 51°21.014 2°36.242 3.3 12 1 26.3
2005-03-18 08:29:19 51°21.03 2°36.242 3.2 12 1 27.4
2005-03-18 08:29:24 51°21.046 2°36.243 3 11.9 1 27.3
2005-03-18 08:29:28 51°21.061 2°36.242 3.8 11.9 359 27.3
2005-03-18 08:29:34 51°21.081 2°36.243 2.1 11.9 359 26.3
2005-03-18 08:29:39 51°21.096 2°36.244 3.5 11.9 359 26.4
2005-03-18 08:29:43 51°21.111 2°36.243 3.6 12 -999 24.9
2005-03-18 08:29:48 51°21.126 2°36.243 2.2 11.9 -999 27.6
2005-03-18 08:29:54 51°21.145 2°36.244 2.8 11.9 -999 28.8
2005-03-18 08:29:59 51°21.162 2°36.244 3.7 12 2 29.4
2005-03-18 08:30:04 51°21.179 2°36.245 3.6 12 2 29.9
2005-03-18 08:30:09 51°21.195 2°36.245 3.4 12 2 30.2
2005-03-18 08:30:14 51°21.211 2°36.245 3.3 12 2 29.9
2005-03-18 08:30:19 51°21.228 2°36.245 4.2 12 1 29.8
2005-03-18 08:30:24 51°21.244 2°36.247 3.3 11.9 1 29.9
2005-03-18 08:30:29 51°21.261 2°36.246 4.7 11.9 1 28.1
2005-03-18 08:30:34 51°21.278 2°36.248 2.7 12.1 -999 28.3
2005-03-18 08:30:38 51°21.293 2°36.247 4.1 12.2 3 28.7
2005-03-18 08:30:44 51°21.312 2°36.249 3 12.2 -999 27.4
2005-03-18 08:30:49 51°21.329 2°36.249 5.1 12.2 -999 29.8
2005-03-18 08:30:54 51°21.345 2°36.251 5 12.1 4 31.1
2005-03-18 08:30:58 51°21.36 2°36.251 5 12.2 4 31.6
2005-03-18 08:31:04 51°21.379 2°36.253 5.8 12.2 6 31.6
2005-03-18 08:31:08 51°21.392 2°36.255 5 12.2 1 31.4
2005-03-18 08:31:13 51°21.411 2°36.256 7 12.2 1 30.9
2005-03-18 08:31:18 51°21.427 2°36.256 4.9 12.2 1 31.6
2005-03-18 08:31:24 51°21.446 2°36.258 6.7 12.1 6 31.6
2005-03-18 08:31:29 51°21.463 2°36.261 5.9 12.1 6 31
2005-03-18 08:31:34 51°21.48 2°36.261 7.5 12.1 6 30.9
2005-03-18 08:31:39 51°21.497 2°36.264 6.2 12.2 2 29.9
2005-03-18 08:31:44 51°21.514 2°36.264 7.6 12.3 5 30.3
2005-03-18 08:31:48 51°21.527 2°36.265 5.8 12.2 1 31.9
2005-03-18 08:31:54 51°21.548 2°36.268 5.7 12.2 3 32.4
2005-03-18 08:31:58 51°21.563 2°36.269 7.1 12.2 3 31.3
2005-03-18 08:32:04 51°21.582 2°36.271 6.1 12.3 2 31.9
2005-03-18 08:32:08 51°21.597 2°36.272 6.9 12.3 2 32.3
2005-03-18 08:32:14 51°21.616 2°36.273 5.9 12.4 2 32.5